Airfield :
LOGIN :

Register | Disclaimer

   EN    FR    IT 

 










Legend :    VFR   Marginal VFR   IFR   Intensive IFR   Very Intensive IFR
Visi :
Ceiling :
>= 8 km
>= 3000ft
5 to 8 km
1000 to 3000 ft
1500m to 5 km
500 to 1000 ft
800 to 1500m
200 to 500 ft
< 800m
< 200 ft
Symbols :   Thunderstorms  Fog  Heavy snow  Heavy precipitations  Wind > 20 kt
SIGMETs :     Misc.  Thunderstorms  Icing  Turbulence  Mountain Waves  Volcanic Ashes






- Airport Elevation : 396 ft


LFOZ - Orléans St Denis

CURRENT METAR :
  • 061500Z AUTO 20013KT 5000 BR OVC005/// ///TCU 05/05 Q1016

EXPIRED METARs :
  • 061430Z AUTO 20014KT 4600 -RA BR OVC005/// ///TCU 05/05 Q1016
  • 061400Z AUTO 21011KT 4700 -RA BR OVC005/// ///TCU 05/04 Q1017
  • 061330Z AUTO 21010KT 5000 -DZ BR OVC004/// ///TCU 04/04 Q1017
  • 061300Z AUTO 20010KT 6000 OVC005/// ///CB 04/04 Q1018
  • 061230Z AUTO 21010KT 6000 OVC004/// ///TCU 03/03 Q1018

TAF N/A



MET'MAP, your aeronautical weather chart ! - Copyright ORBIFLY December 2007 - Disclaimer

ORBIFLY MET'MAP TEAM :

Programming & Development : Alexandra Zaïnal
Concept & original design : Baudouin d'Aumeries
Assistance for programming : Marc-Olivier Méhu
Technical & hardware support : Manuel Goepfert

Contact : metmap@orbifly.com




SOURCES & CREDITS :

   NOAA